Latest Weather Observations for Normanton

IDQ60801

Issued at 8:32 pm EST Monday 22 December 2014 (issued every 30 minutes, with the page automatically refreshed every 10 minutes)

About weather observations | Map of weather stations | Latest weather observations for QLD | Other Formats
Station Details ID: 029063 Name: NORMANTON AIRPORT Lat: -17.69 Lon: 141.07 Height: 18.42 m
Data from the previous 72 hours. | See also: Recent months at Normanton
Date/Time
EST
Temp
°C
App
Temp
°C
Dew
Point
Rel
Hum
%
Delta-T
°C
Wind Press
QNH
hPa
Press
MSL
hPa
Rain
since 9 am
mm
Dir
 
Spd
km/h
Gust
km/h
Spd
kts
Gust
kts
22/08:30pm 30.5 32.6 22.4 62 5.5 NW 15 19 8 10 1007.5 - 0.0
22/08:00pm 31.1 32.5 21.9 58 6.2 NW 17 20 9 11 1007.4 - 0.0
22/07:30pm 31.4 33.3 22.1 57 6.3 NNW 15 19 8 10 1007.5 - 0.0
22/07:00pm 31.3 33.6 22.0 57 6.3 N 13 17 7 9 1007.7 - 0.0
22/06:30pm 33.3 34.7 20.4 46 8.6 N 13 19 7 10 1007.5 - 0.0
22/06:00pm 34.5 35.8 20.8 44 9.2 NW 15 20 8 11 1007.4 1007.2 0.0
22/05:30pm 34.0 34.4 20.7 45 8.9 NW 19 28 10 15 1007.0 - 0.0
22/05:00pm 34.2 34.4 20.6 45 9.1 NW 20 28 11 15 1006.7 - 0.0
22/04:30pm 34.0 33.9 20.7 45 8.9 NW 22 32 12 17 1006.5 - 0.0
22/04:00pm 34.8 34.7 21.5 46 9.0 WNW 24 32 13 17 1006.6 - 0.0
22/03:30pm 34.9 36.0 21.9 46 8.9 WNW 19 32 10 17 1007.0 - 0.0
22/03:00pm 34.1 34.8 21.5 47 8.6 NNW 20 35 11 19 1007.5 1007.4 0.0
22/02:30pm 34.4 35.8 21.8 48 8.6 N 17 24 9 13 1007.9 - 0.0
22/02:00pm 34.7 35.5 21.4 46 9.0 WNW 19 24 10 13 1008.4 - 0.0
22/01:30pm 34.2 36.8 22.6 50 8.0 NW 13 22 7 12 1008.6 - 0.0
22/01:00pm 33.1 34.9 22.5 53 7.3 NNW 17 28 9 15 1009.3 - 0.0
22/12:30pm 33.0 34.5 23.0 55 6.9 NNW 20 28 11 15 1010.0 - 0.0
22/12:00pm 32.6 33.4 22.4 55 7.0 NW 22 28 12 15 1010.6 1010.4 0.0
22/11:30am 32.6 33.5 22.7 56 6.8 NNW 22 30 12 16 1010.9 - 0.0
22/11:00am 32.1 34.2 22.5 57 6.6 N 15 28 8 15 1011.3 - 0.0
22/10:30am 31.9 33.6 22.3 56 6.5 N 17 26 9 14 1011.4 - 0.0
22/10:00am 31.8 33.9 22.5 58 6.4 N 15 24 8 13 1011.4 - 0.0
22/09:30am 31.7 33.0 22.4 58 6.3 N 19 26 10 14 1011.5 - 0.0
22/09:00am 30.2 31.6 22.6 63 5.2 NNE 19 24 10 13 1011.4 1011.1 1.2
22/08:30am 30.4 32.7 22.8 64 5.2 NNE 15 24 8 13 1011.0 - 1.2
22/08:00am 29.9 33.3 24.1 71 4.0 NNE 13 17 7 9 1010.8 - 1.2
22/07:30am 28.8 33.0 24.8 79 2.8 NNE 11 15 6 8 1010.7 - 1.2
22/07:00am 27.8 34.1 25.4 87 1.7 NE 2 7 1 4 1010.1 - 1.2
22/06:30am 26.5 33.3 25.6 95 0.6 CALM 0 0 0 0 1009.6 - 1.2
22/06:00am 26.1 31.5 25.2 95 0.6 ENE 6 7 3 4 1008.8 1008.4 1.2
22/05:30am 26.4 31.7 25.0 92 1.0 NE 6 9 3 5 1008.7 - 1.2
22/05:00am 26.6 31.9 25.2 92 1.0 ENE 7 11 4 6 1008.0 - 1.2
22/04:30am 26.3 31.6 25.3 94 0.7 ESE 7 11 4 6 1007.9 - 1.2
22/04:00am 26.1 31.4 25.2 95 0.6 ESE 7 9 4 5 1007.9 - 1.2
22/03:30am 26.3 32.9 25.3 94 0.7 CALM 0 9 0 5 1007.9 - 1.2
22/03:00am 26.5 31.8 25.3 93 0.8 ESE 7 9 4 5 1008.0 1007.8 1.2
22/02:30am 26.4 31.8 25.4 94 0.7 SE 7 11 4 6 1007.8 - 1.2
22/02:00am 26.3 31.3 25.4 95 0.6 E 9 11 5 6 1007.5 - 1.2
22/01:30am 26.2 31.6 25.5 96 0.5 E 7 9 4 5 1007.3 - 1.2
22/01:00am 26.2 31.1 25.3 95 0.6 E 9 11 5 6 1007.4 - 1.2
22/12:30am 26.3 31.2 25.3 94 0.7 ENE 9 13 5 7 1007.5 - 1.2
22/12:00am 26.7 31.4 24.9 90 1.3 NNE 9 13 5 7 1007.9 1007.8 1.2
 
Date/Time
EST
Temp
°C
App
Temp
°C
Dew
Point
Rel
Hum
%
Delta-T
°C
Wind Press
QNH
hPa
Press
MSL
hPa
Rain
since 9 am
mm
Dir
 
Spd
km/h
Gust
km/h
Spd
kts
Gust
kts
21/11:30pm 26.8 31.4 24.8 89 1.4 NNE 9 13 5 7 1008.2 - 1.2
21/11:00pm 27.1 32.0 25.3 90 1.3 N 9 11 5 6 1008.2 - 1.2
21/10:30pm 27.2 33.0 26.0 93 0.8 NNE 7 9 4 5 1008.3 - 1.2
21/10:00pm 27.5 33.5 25.5 89 1.4 NW 4 7 2 4 1008.5 - 1.2
21/09:30pm 27.6 32.9 25.8 90 1.3 N 9 11 5 6 1008.1 - 1.2
21/09:00pm 27.8 33.4 25.8 89 1.4 N 7 9 4 5 1008.4 1008.1 1.2
21/08:30pm 28.0 33.5 25.6 87 1.7 NNW 7 9 4 5 1008.1 - 1.2
21/08:00pm 27.8 34.6 25.6 88 1.6 CALM 0 0 0 0 1008.2 - 1.2
21/07:30pm 28.2 33.6 25.4 85 2.0 WNW 7 11 4 6 1008.3 - 1.2
21/07:00pm 28.5 32.7 25.3 83 2.3 NNW 13 15 7 8 1008.1 - 1.2
21/06:30pm 28.8 33.0 25.4 82 2.4 NNW 13 15 7 8 1007.9 - 1.2
21/06:00pm 28.7 33.5 25.1 81 2.5 NNE 9 13 5 7 1007.6 1007.3 1.2
21/05:30pm 28.4 32.9 25.2 83 2.2 NE 11 15 6 8 1007.5 - 1.2
21/05:00pm 28.0 32.5 24.6 82 2.4 NE 9 15 5 8 1007.6 - 1.2
21/04:30pm 27.4 32.7 25.2 88 1.5 ENE 7 13 4 7 1007.5 - 1.2
21/04:00pm 26.6 31.2 24.8 90 1.3 SE 9 13 5 7 1007.9 - 1.2
21/03:30pm 26.6 33.0 26.6 100 0.0 SE 6 11 3 6 1008.2 - 1.0
21/03:00pm 25.8 30.7 25.8 100 0.0 ENE 11 15 6 8 1008.9 1008.8 1.0
21/02:30pm 25.8 29.9 25.8 100 0.0 NNE 15 24 8 13 1009.0 - 1.0
21/02:00pm 26.2 32.8 25.3 95 0.6 CALM 0 9 0 5 1009.3 - 0.2
21/01:30pm 26.3 28.6 25.1 93 0.8 SW 22 33 12 18 1010.0 - 0.0
21/01:00pm 27.4 28.2 23.8 81 2.5 S 26 37 14 20 1009.6 - 0.0
21/12:47pm 28.0 27.7 22.5 72 3.7 S 28 41 15 22 1009.6 - 0.0
21/12:30pm 32.8 36.6 23.4 57 6.5 N 9 13 5 7 1009.6 - 0.0
21/12:00pm 32.4 35.4 23.3 58 6.3 NNE 13 17 7 9 1009.8 1009.8 0.0
21/11:30am 31.9 35.7 24.0 63 5.5 NE 11 19 6 10 1009.9 - 0.0
21/11:00am 32.2 34.8 24.0 62 5.7 NE 17 28 9 15 1010.3 - 0.0
21/10:30am 32.2 35.0 24.3 63 5.5 NNE 17 26 9 14 1010.5 - 0.0
21/10:00am 31.6 34.5 24.5 66 5.0 N 17 26 9 14 1010.5 - 0.0
21/09:30am 32.0 35.7 25.1 67 4.9 NNE 15 24 8 13 1010.5 - 0.0
21/09:00am 31.2 35.4 26.0 74 3.7 NNE 15 26 8 14 1010.3 1010.1 0.0
21/08:30am 30.4 33.9 25.5 75 3.5 NNE 17 24 9 13 1010.1 - 0.0
21/08:00am 30.1 34.7 25.4 76 3.3 NNE 11 17 6 9 1010.0 - 0.0
21/07:30am 29.8 34.4 26.0 80 2.7 NNE 13 20 7 11 1009.6 - 0.0
21/07:00am 29.4 34.3 25.8 81 2.6 N 11 15 6 8 1009.2 - 0.0
21/06:30am 28.7 34.0 25.9 85 2.0 NNE 9 15 5 8 1008.7 - 0.0
21/06:00am 28.6 33.6 26.0 86 1.8 NNE 11 17 6 9 1008.3 1008.1 0.0
21/05:30am 28.7 34.5 26.1 86 1.8 NNE 7 11 4 6 1007.9 - 0.0
21/05:00am 28.8 34.6 26.0 85 2.0 ENE 7 11 4 6 1007.6 - 0.0
21/04:30am 29.0 35.2 25.8 83 2.3 NW 4 7 2 4 1007.2 - 0.0
21/04:00am 29.3 33.9 25.9 82 2.4 NW 13 17 7 9 1006.6 - 0.0
21/03:30am 29.6 34.2 26.0 81 2.6 NNW 13 20 7 11 1006.7 - 0.0
21/03:00am 29.5 34.1 25.9 81 2.6 NNW 13 17 7 9 1006.5 1006.3 0.0
21/02:30am 29.5 33.7 25.9 81 2.6 NNW 15 20 8 11 1006.8 - 0.0
21/02:00am 29.6 33.6 25.6 79 2.8 N 15 19 8 10 1006.8 - 0.0
21/01:30am 29.5 32.3 25.3 78 3.0 N 20 26 11 14 1007.0 - 0.0
21/01:00am 29.6 32.8 25.8 80 2.7 N 20 24 11 13 1007.3 - 0.0
21/12:30am 29.6 31.9 24.5 74 3.6 NNW 20 30 11 16 1007.5 - 0.0
21/12:00am 28.7 30.2 22.0 67 4.5 N 17 24 9 13 1007.9 1007.9 0.0
 
Date/Time
EST
Temp
°C
App
Temp
°C
Dew
Point
Rel
Hum
%
Delta-T
°C
Wind Press
QNH
hPa
Press
MSL
hPa
Rain
since 9 am
mm
Dir
 
Spd
km/h
Gust
km/h
Spd
kts
Gust
kts
20/11:30pm 29.0 31.0 21.5 64 5.0 NE 13 20 7 11 1008.4 - 0.0
20/11:00pm 29.7 30.0 20.5 57 6.1 E 19 28 10 15 1008.8 - 0.0
20/10:30pm 29.8 32.7 21.7 61 5.5 NE 9 13 5 7 1008.4 - 0.0
20/10:00pm 29.9 33.0 22.1 63 5.3 NNW 9 11 5 6 1008.0 - 0.0
20/09:30pm 29.9 32.3 22.3 63 5.2 SW 13 20 7 11 1008.0 - 0.0
20/09:00pm 30.7 35.5 26.2 77 3.2 W 13 20 7 11 1008.1 1007.6 0.0
20/08:30pm 31.0 34.5 26.0 74 3.6 NW 19 26 10 14 1006.7 - 0.0
20/08:00pm 31.6 34.6 25.5 70 4.3 NW 20 24 11 13 1006.5 - 0.0
20/07:30pm 31.7 34.4 24.8 67 4.9 NW 19 26 10 14 1006.4 - 0.0
20/07:00pm 32.7 34.6 25.0 64 5.4 NNW 24 30 13 16 1005.7 - 0.0
20/06:30pm 34.2 36.3 24.7 57 6.7 NNW 22 32 12 17 1005.5 - 0.0
20/06:00pm 35.0 36.7 24.6 55 7.4 N 24 35 13 19 1005.1 1004.8 0.0
20/05:30pm 35.2 37.2 24.5 54 7.6 N 22 30 12 16 1004.7 - 0.0
20/05:00pm 36.0 38.8 25.2 53 7.7 N 20 32 11 17 1004.7 - 0.0
20/04:30pm 35.1 37.8 25.0 56 7.2 N 20 33 11 18 1004.8 - 0.0
20/04:00pm 35.3 37.7 25.2 56 7.2 NNW 22 30 12 16 1005.0 - 0.0
20/03:30pm 35.1 36.6 23.1 49 8.3 N 20 28 11 15 1005.3 - 0.0
20/03:00pm 34.3 35.3 25.4 60 6.4 NNW 30 39 16 21 1005.7 1005.6 0.0
20/02:30pm 34.5 35.8 25.3 58 6.5 NNW 28 37 15 20 1006.1 - 0.0
20/02:00pm 33.1 34.9 24.8 61 5.9 NW 24 35 13 19 1006.6 - 0.0
20/01:30pm 35.7 38.1 23.0 48 8.8 N 15 24 8 13 1007.1 - 0.0
20/01:00pm 36.7 38.3 19.2 36 11.6 NE 9 17 5 9 1007.6 - 0.0
20/12:30pm 37.0 38.2 19.9 36 11.5 NE 13 24 7 13 1008.1 - 0.0
20/12:00pm 36.3 39.0 22.8 45 9.4 E 13 24 7 13 1008.6 1008.4 0.0
20/11:30am 35.9 38.4 22.5 46 9.2 NNE 13 22 7 12 1008.8 - 0.0
20/11:00am 35.8 38.9 24.1 51 8.2 NNE 15 24 8 13 1009.0 - 0.0
20/10:30am 35.9 39.6 24.5 52 8.1 NE 13 20 7 11 1009.2 - 0.0
20/10:00am 34.9 37.7 23.6 52 7.9 NE 15 24 8 13 1009.3 - 0.0
20/09:30am 34.4 37.2 23.7 53 7.5 ENE 15 24 8 13 1009.4 - 0.0
20/09:00am 33.9 36.8 23.9 56 7.0 E 15 24 8 13 1009.0 1008.6 0.0
20/08:30am 33.8 37.6 23.5 55 7.2 E 9 20 5 11 1008.5 - 0.0
20/08:00am 32.7 35.9 23.1 57 6.6 E 11 19 6 10 1008.3 - 0.0
20/07:30am 32.1 36.9 24.2 63 5.5 S 6 11 3 6 1008.3 - 0.0
20/07:00am 30.2 35.8 25.5 76 3.3 SSW 6 9 3 5 1008.2 - 0.0
20/06:30am 29.0 34.6 25.8 83 2.3 SSW 7 9 4 5 1007.9 - 0.0
20/06:00am 28.6 34.4 26.0 86 1.8 WSW 7 9 4 5 1007.7 1007.5 0.0
20/05:30am 28.6 34.4 26.0 86 1.8 SW 7 9 4 5 1007.4 - 0.0
20/05:00am 28.6 34.5 26.2 87 1.7 SW 7 9 4 5 1007.0 - 0.0
20/04:30am 28.9 34.4 26.1 85 2.0 WSW 9 11 5 6 1006.7 - 0.0
20/04:00am 29.2 35.1 26.2 84 2.1 W 7 11 4 6 1006.7 - 0.0
20/03:30am 29.4 35.1 26.4 84 2.1 W 9 13 5 7 1006.9 - 0.0
20/03:00am 29.4 35.4 26.4 84 2.1 W 7 9 4 5 1006.8 1006.7 0.0
20/02:30am 29.5 35.5 26.3 83 2.3 WSW 7 11 4 6 1007.2 - 0.0
20/02:00am 29.6 35.1 26.2 82 2.4 WSW 9 13 5 7 1007.3 - 0.0
20/01:30am 29.7 35.0 25.9 80 2.7 WSW 9 13 5 7 1007.4 - 0.0
20/01:00am 30.0 35.3 25.3 76 3.3 WSW 7 9 4 5 1007.6 - 0.0
20/12:30am 30.5 36.3 25.1 73 3.8 WNW 4 7 2 4 1008.1 - 0.0
20/12:00am 31.0 36.4 25.1 71 4.2 W 6 7 3 4 1008.3 1008.2 0.0
 
Date/Time
EST
Temp
°C
App
Temp
°C
Dew
Point
Rel
Hum
%
Delta-T
°C
Wind Press
QNH
hPa
Press
MSL
hPa
Rain
since 9 am
mm
Dir
 
Spd
km/h
Gust
km/h
Spd
kts
Gust
kts
19/11:30pm 30.9 36.1 24.8 70 4.3 W 6 9 3 5 1008.6 - 0.0
19/11:00pm 31.2 36.2 24.8 69 4.5 W 7 9 4 5 1008.7 - 0.0
19/10:30pm 31.6 36.5 24.7 67 4.8 NW 7 9 4 5 1008.8 - 0.0
19/10:00pm 31.9 36.8 24.7 65 5.1 WNW 7 9 4 5 1008.8 - 0.0
19/09:30pm 32.2 36.8 24.8 65 5.2 WNW 9 11 5 6 1008.6 - 0.0
19/09:00pm 32.6 36.7 24.6 62 5.6 WNW 11 15 6 8 1008.4 1008.0 0.0

Other Formats:

Comma delimited format used in spreadsheet applications
http://www.bom.gov.au/fwo/IDQ60801/IDQ60801.94266.axf

JavaScript Object Notation format (JSON) in row-major order
http://www.bom.gov.au/fwo/IDQ60801/IDQ60801.94266.json